createdAt,value
2018-12-21T00:00:12.807Z,46.22
2018-12-21T00:02:40.473Z,46.41
2018-12-21T00:05:08.223Z,46.39
2018-12-21T00:07:35.795Z,46.49
2018-12-21T00:10:03.951Z,46.67
2018-12-21T00:12:31.631Z,47.22
2018-12-21T00:14:59.191Z,47.01
2018-12-21T00:17:34.294Z,47.05
2018-12-21T00:19:56.867Z,47.49
2018-12-21T00:22:24.737Z,47.42
2018-12-21T00:24:52.202Z,47.48
2018-12-21T00:27:19.979Z,47.08
2018-12-21T00:29:47.522Z,47.25
2018-12-21T00:32:20.831Z,47.13
2018-12-21T00:34:54.839Z,47.33
2018-12-21T00:37:28.224Z,47.59
2018-12-21T00:40:01.474Z,47.79
2018-12-21T00:42:31.327Z,47.67
2018-12-21T00:45:00.677Z,47.75
2018-12-21T00:47:28.290Z,48.37
2018-12-21T00:49:55.959Z,48.00
2018-12-21T00:52:23.718Z,48.34
2018-12-21T00:54:51.363Z,48.63
2018-12-21T00:57:18.936Z,48.47
2018-12-21T00:59:46.690Z,48.83
2018-12-21T01:02:14.113Z,48.26
2018-12-21T01:04:41.911Z,48.55
2018-12-21T01:07:09.326Z,48.37
2018-12-21T01:09:37.050Z,48.30
2018-12-21T01:12:04.481Z,48.94
2018-12-21T01:14:32.271Z,48.71
2018-12-21T01:17:00.323Z,48.76
2018-12-21T01:19:28.078Z,48.91
2018-12-21T01:21:55.745Z,48.75
2018-12-21T01:24:23.298Z,48.93
2018-12-21T01:26:50.902Z,48.97
2018-12-21T01:29:18.960Z,48.89
2018-12-21T01:31:46.723Z,49.09
2018-12-21T01:34:14.411Z,49.45
2018-12-21T01:36:42.225Z,49.49
2018-12-21T01:39:09.783Z,49.29
2018-12-21T01:41:37.847Z,49.08
2018-12-21T01:46:59.795Z,49.21
2018-12-21T01:49:27.471Z,49.85
2018-12-21T01:51:54.887Z,49.46
2018-12-21T01:54:22.435Z,49.48
2018-12-21T01:56:50.010Z,50.15
2018-12-21T01:59:17.598Z,50.07
2018-12-21T02:01:45.167Z,50.07
2018-12-21T02:04:12.713Z,50.10
2018-12-21T02:06:40.490Z,50.01
2018-12-21T02:09:08.126Z,50.15
2018-12-21T02:11:35.590Z,50.06
2018-12-21T02:14:03.355Z,50.54
2018-12-21T02:16:30.858Z,50.49
2018-12-21T02:18:58.419Z,50.85
2018-12-21T02:21:25.861Z,50.59
2018-12-21T02:23:53.491Z,50.21
2018-12-21T02:26:20.949Z,49.97
2018-12-21T02:28:48.452Z,49.35
2018-12-21T02:31:16.474Z,49.17
2018-12-21T02:33:44.004Z,48.45
2018-12-21T02:36:11.664Z,49.28
2018-12-21T02:38:39.216Z,48.94
2018-12-21T02:41:06.702Z,48.42
2018-12-21T02:43:34.375Z,48.73
2018-12-21T02:46:02.440Z,49.00
2018-12-21T02:48:30.166Z,49.04
2018-12-21T02:50:58.067Z,48.56
2018-12-21T02:53:25.838Z,48.62
2018-12-21T02:55:53.806Z,49.12
2018-12-21T02:58:21.480Z,49.25
2018-12-21T03:00:48.902Z,49.26
2018-12-21T03:03:16.377Z,49.12
2018-12-21T03:05:43.851Z,49.61
2018-12-21T03:08:11.925Z,49.51
2018-12-21T03:10:39.488Z,49.14
2018-12-21T03:13:07.136Z,49.65
2018-12-21T03:15:35.226Z,49.42
2018-12-21T03:18:02.770Z,49.60
2018-12-21T03:20:30.341Z,49.83
2018-12-21T03:22:57.956Z,49.45
2018-12-21T03:25:25.949Z,49.22
2018-12-21T03:27:53.552Z,49.89
2018-12-21T03:30:21.125Z,49.53
2018-12-21T03:32:49.138Z,49.46
2018-12-21T03:35:16.728Z,50.11
2018-12-21T03:37:44.135Z,49.95
2018-12-21T03:40:11.636Z,49.77
2018-12-21T03:42:39.076Z,49.46
2018-12-21T03:45:06.570Z,50.16
2018-12-21T03:47:34.104Z,49.95
2018-12-21T03:50:01.699Z,50.42
2018-12-21T03:52:29.789Z,49.71
2018-12-21T03:54:57.355Z,50.41
2018-12-21T03:57:24.854Z,49.98
2018-12-21T03:59:52.496Z,50.24
2018-12-21T04:02:20.977Z,50.40
2018-12-21T04:04:48.950Z,50.49
2018-12-21T04:07:16.407Z,50.30
2018-12-21T04:09:44.453Z,49.92
2018-12-21T04:12:12.159Z,50.55
2018-12-21T04:14:40.214Z,50.87
2018-12-21T04:17:08.111Z,50.28
2018-12-21T04:19:35.505Z,50.91
2018-12-21T04:22:02.978Z,50.37
2018-12-21T04:24:30.454Z,50.49
2018-12-21T04:26:57.909Z,50.75
2018-12-21T04:29:25.468Z,51.03
2018-12-21T04:31:53.142Z,50.84
2018-12-21T04:34:20.690Z,50.54
2018-12-21T04:36:48.249Z,50.57
2018-12-21T04:39:15.820Z,50.47
2018-12-21T04:41:43.492Z,51.10
2018-12-21T04:44:11.236Z,51.11
2018-12-21T04:46:38.689Z,51.13
2018-12-21T04:49:06.355Z,51.03
2018-12-21T04:51:34.014Z,50.66
2018-12-21T04:54:02.279Z,50.79
2018-12-21T04:56:30.059Z,50.95
2018-12-21T04:58:57.514Z,50.92
2018-12-21T05:01:25.264Z,50.83
2018-12-21T05:03:52.833Z,50.78
2018-12-21T05:06:20.702Z,50.72
2018-12-21T05:08:48.469Z,51.46
2018-12-21T05:11:16.127Z,50.86
2018-12-21T05:13:43.695Z,51.01
2018-12-21T05:16:11.310Z,51.21
2018-12-21T05:18:38.803Z,51.58
2018-12-21T05:21:06.575Z,51.48
2018-12-21T05:23:34.018Z,51.76
2018-12-21T05:26:01.681Z,51.45
2018-12-21T05:28:29.138Z,51.40
2018-12-21T05:30:56.726Z,51.74
2018-12-21T05:33:24.365Z,51.63
2018-12-21T05:35:52.022Z,51.92
2018-12-21T05:38:20.081Z,51.70
2018-12-21T05:40:47.776Z,51.19
2018-12-21T05:43:15.632Z,51.37
2018-12-21T05:45:43.185Z,51.77
2018-12-21T05:48:10.955Z,51.21
2018-12-21T05:50:38.517Z,51.12
2018-12-21T05:53:06.066Z,51.97
2018-12-21T05:55:33.836Z,51.81
2018-12-21T05:58:01.378Z,51.70
2018-12-21T06:00:28.940Z,51.37
2018-12-21T06:02:56.493Z,51.54
2018-12-21T06:05:24.165Z,51.51
2018-12-21T06:07:51.828Z,51.79
2018-12-21T06:10:19.345Z,51.98
2018-12-21T06:12:47.046Z,51.69
2018-12-21T06:15:14.852Z,51.58
2018-12-21T06:17:42.268Z,52.16
2018-12-21T06:20:10.029Z,51.95
2018-12-21T06:22:37.486Z,52.13
2018-12-21T06:25:05.822Z,52.09
2018-12-21T06:27:33.738Z,51.76
2018-12-21T06:30:01.216Z,51.77
2018-12-21T06:32:28.857Z,51.48
2018-12-21T06:34:56.410Z,51.83
2018-12-21T06:37:24.098Z,51.97
2018-12-21T06:39:51.732Z,52.15
2018-12-21T06:42:19.397Z,51.81
2018-12-21T06:44:47.017Z,51.84
2018-12-21T06:47:14.514Z,51.94
2018-12-21T06:49:42.260Z,52.30
2018-12-21T06:52:09.777Z,51.65
2018-12-21T06:54:37.371Z,52.32
2018-12-21T06:57:05.088Z,51.72
2018-12-21T06:59:32.717Z,51.77
2018-12-21T07:02:00.388Z,51.42
2018-12-21T07:04:27.952Z,51.85
2018-12-21T07:06:55.532Z,51.37
2018-12-21T07:09:23.158Z,51.24
2018-12-21T07:11:50.802Z,51.66
2018-12-21T07:14:18.392Z,51.37
2018-12-21T07:16:45.972Z,51.08
2018-12-21T07:19:13.512Z,51.06
2018-12-21T07:21:40.946Z,51.07
2018-12-21T07:24:08.546Z,50.98
2018-12-21T07:26:36.074Z,50.61
2018-12-21T07:29:03.624Z,50.90
2018-12-21T07:31:31.181Z,50.32
2018-12-21T07:33:58.844Z,50.53
2018-12-21T07:36:26.334Z,50.58
2018-12-21T07:38:54.336Z,50.05
2018-12-21T07:41:22.012Z,50.01
2018-12-21T07:43:49.748Z,50.14
2018-12-21T07:46:17.414Z,49.66
2018-12-21T07:48:45.031Z,49.97
2018-12-21T07:51:12.708Z,49.42
2018-12-21T07:53:40.352Z,49.37
2018-12-21T07:56:07.928Z,49.37
2018-12-21T07:58:35.466Z,49.70
2018-12-21T08:01:03.004Z,49.38
2018-12-21T08:03:30.562Z,49.36
2018-12-21T08:05:58.020Z,49.63
2018-12-21T08:08:25.732Z,48.87
2018-12-21T08:10:53.343Z,49.00
2018-12-21T08:13:20.949Z,49.37
2018-12-21T08:15:48.470Z,49.61
2018-12-21T08:18:16.257Z,48.93
2018-12-21T08:20:43.918Z,48.86
2018-12-21T08:23:11.485Z,45.87
2018-12-21T08:25:39.118Z,48.59
2018-12-21T08:28:06.801Z,49.66
2018-12-21T08:30:34.541Z,49.03
2018-12-21T08:33:02.093Z,48.24
2018-12-21T08:35:29.889Z,48.43
2018-12-21T08:37:57.618Z,47.91
2018-12-21T08:40:25.085Z,48.66
2018-12-21T08:42:52.754Z,48.03
2018-12-21T08:45:20.174Z,48.41
2018-12-21T08:47:47.865Z,48.37
2018-12-21T08:50:15.630Z,48.06
2018-12-21T08:52:43.381Z,47.78
2018-12-21T08:55:12.014Z,47.65
2018-12-21T08:57:40.040Z,47.17
2018-12-21T09:00:10.100Z,47.59
2018-12-21T09:02:37.738Z,47.75
2018-12-21T09:05:06.311Z,47.70
2018-12-21T09:07:34.164Z,47.87
2018-12-21T09:10:01.852Z,47.93
2018-12-21T09:12:29.392Z,47.83
2018-12-21T09:14:57.170Z,47.31
2018-12-21T09:17:24.608Z,47.79
2018-12-21T09:19:52.379Z,47.52
2018-12-21T09:22:20.044Z,47.91
2018-12-21T09:24:47.913Z,47.60
2018-12-21T09:27:15.577Z,47.40
2018-12-21T09:29:43.236Z,48.27
2018-12-21T09:32:10.680Z,48.02
2018-12-21T09:34:38.347Z,48.11
2018-12-21T09:37:06.003Z,47.89
2018-12-21T09:39:33.607Z,48.23
2018-12-21T09:42:01.233Z,48.17
2018-12-21T09:44:28.687Z,47.43
2018-12-21T09:46:56.453Z,48.01
2018-12-21T09:49:24.015Z,47.75
2018-12-21T09:51:51.767Z,47.77
2018-12-21T09:54:19.423Z,48.47
2018-12-21T09:56:47.081Z,48.20
2018-12-21T09:59:14.866Z,47.79
2018-12-21T10:01:42.501Z,47.93
2018-12-21T10:04:10.440Z,48.42
2018-12-21T10:06:38.061Z,48.35
2018-12-21T10:09:07.242Z,47.91
2018-12-21T10:11:34.929Z,48.34
2018-12-21T10:14:03.255Z,47.80
2018-12-21T10:16:30.967Z,48.28
2018-12-21T10:18:58.745Z,48.45
2018-12-21T10:21:26.367Z,48.49
2018-12-21T10:23:54.073Z,47.90
2018-12-21T10:26:21.603Z,48.43
2018-12-21T10:28:49.263Z,48.31
2018-12-21T10:31:17.037Z,48.51
2018-12-21T10:33:44.757Z,48.08
2018-12-21T10:36:12.253Z,48.01
2018-12-21T10:38:40.017Z,48.84
2018-12-21T10:41:07.979Z,48.78
2018-12-21T10:43:35.428Z,48.96
2018-12-21T10:46:03.192Z,48.82
2018-12-21T10:48:30.665Z,49.61
2018-12-21T10:50:58.622Z,49.19
2018-12-21T10:53:26.218Z,49.53
2018-12-21T10:55:53.944Z,49.24
2018-12-21T10:58:21.350Z,49.26
2018-12-21T11:00:48.937Z,49.56
2018-12-21T11:03:16.451Z,50.10
2018-12-21T11:05:44.482Z,49.59
2018-12-21T11:08:12.145Z,49.59
2018-12-21T11:10:39.996Z,49.93
2018-12-21T11:13:07.487Z,50.06
2018-12-21T11:15:35.146Z,49.71
2018-12-21T11:18:03.024Z,50.47
2018-12-21T11:20:30.969Z,50.21
2018-12-21T11:22:58.664Z,49.83
2018-12-21T11:25:26.763Z,49.49
2018-12-21T11:27:54.775Z,49.44
2018-12-21T11:30:22.755Z,50.38
2018-12-21T11:32:50.825Z,50.15
2018-12-21T11:35:18.481Z,50.02
2018-12-21T11:37:46.328Z,50.05
2018-12-21T11:40:13.933Z,50.24
2018-12-21T11:42:41.774Z,50.17
2018-12-21T11:45:09.246Z,50.10
2018-12-21T11:47:37.297Z,50.47
2018-12-21T11:50:07.971Z,49.96
2018-12-21T11:52:36.105Z,49.82
2018-12-21T11:55:04.902Z,49.64
2018-12-21T11:57:32.344Z,50.16
2018-12-21T12:00:00.364Z,50.02
2018-12-21T12:02:28.203Z,49.45
2018-12-21T12:04:55.912Z,49.39
2018-12-21T12:07:24.049Z,49.81
2018-12-21T12:09:51.489Z,49.10
2018-12-21T12:12:19.031Z,48.93
2018-12-21T12:14:46.992Z,48.84
2018-12-21T12:17:14.855Z,49.04
2018-12-21T12:19:42.969Z,48.50
2018-12-21T12:22:10.785Z,48.99
2018-12-21T12:24:38.776Z,49.04
2018-12-21T12:27:06.430Z,48.94
2018-12-21T12:29:34.023Z,48.77
2018-12-21T12:32:01.659Z,48.51
2018-12-21T12:34:29.616Z,48.50
2018-12-21T12:36:58.075Z,48.78
2018-12-21T12:39:26.176Z,48.64
2018-12-21T12:41:53.640Z,48.39
2018-12-21T12:44:21.397Z,48.90
2018-12-21T12:46:49.474Z,48.46
2018-12-21T12:49:17.135Z,49.00
2018-12-21T12:51:44.572Z,49.06
2018-12-21T12:54:12.052Z,48.91
2018-12-21T12:56:40.194Z,48.96
2018-12-21T12:59:07.767Z,48.86
2018-12-21T13:01:35.855Z,48.30
2018-12-21T13:04:03.497Z,48.72
2018-12-21T13:06:30.922Z,48.63
2018-12-21T13:08:58.525Z,48.48
2018-12-21T13:11:26.631Z,48.39
2018-12-21T13:13:54.854Z,48.86
2018-12-21T13:16:22.513Z,48.45
2018-12-21T13:18:49.938Z,48.25
2018-12-21T13:21:17.351Z,48.51
2018-12-21T13:23:44.792Z,48.43
2018-12-21T13:26:12.279Z,48.33
2018-12-21T13:28:39.832Z,48.77
2018-12-21T13:31:07.363Z,48.24
2018-12-21T13:33:34.963Z,48.38
2018-12-21T13:36:02.345Z,48.22
2018-12-21T13:38:29.871Z,48.18
2018-12-21T13:40:57.435Z,48.15
2018-12-21T13:43:25.196Z,48.33
2018-12-21T13:45:52.766Z,48.64
2018-12-21T13:48:20.208Z,48.26
2018-12-21T13:50:47.747Z,48.12
2018-12-21T13:53:15.327Z,48.20
2018-12-21T13:55:42.957Z,48.46
2018-12-21T13:58:10.373Z,48.01
2018-12-21T14:00:37.985Z,48.14
2018-12-21T14:03:05.445Z,48.51
2018-12-21T14:05:32.973Z,48.67
2018-12-21T14:08:00.585Z,48.08
2018-12-21T14:10:28.005Z,48.09
2018-12-21T14:12:55.525Z,48.66
2018-12-21T14:15:23.021Z,48.18
2018-12-21T14:17:50.479Z,48.04
2018-12-21T14:20:18.512Z,47.88
2018-12-21T14:22:46.105Z,48.48
2018-12-21T14:25:13.521Z,48.25
2018-12-21T14:27:41.618Z,48.10
2018-12-21T14:30:09.234Z,48.67
2018-12-21T14:32:36.746Z,48.05
2018-12-21T14:35:04.995Z,48.57
2018-12-21T14:37:33.066Z,48.57
2018-12-21T14:40:00.682Z,48.06
2018-12-21T14:42:28.823Z,48.05
2018-12-21T14:44:56.416Z,48.13
2018-12-21T14:47:24.467Z,48.17
2018-12-21T14:49:52.044Z,48.40
2018-12-21T14:52:19.532Z,48.19
2018-12-21T14:54:46.927Z,48.31
2018-12-21T14:57:14.345Z,48.66
2018-12-21T14:59:41.905Z,48.72
2018-12-21T15:02:09.933Z,48.74
2018-12-21T15:04:37.631Z,48.40
2018-12-21T15:07:05.061Z,48.29
2018-12-21T15:09:32.655Z,48.19
2018-12-21T15:12:00.681Z,48.63
2018-12-21T15:14:28.333Z,48.13
2018-12-21T15:16:55.941Z,48.76
2018-12-21T15:19:23.449Z,48.23
2018-12-21T15:21:50.900Z,46.55
2018-12-21T15:24:18.369Z,44.72
2018-12-21T15:26:45.853Z,48.72
2018-12-21T15:29:13.363Z,48.63
2018-12-21T15:31:40.933Z,47.65
2018-12-21T15:34:08.559Z,47.58
2018-12-21T15:36:36.058Z,47.60
2018-12-21T15:39:04.862Z,47.50
2018-12-21T15:41:32.564Z,47.79
2018-12-21T15:43:59.947Z,47.90
2018-12-21T15:46:27.541Z,47.63
2018-12-21T15:48:55.089Z,47.56
2018-12-21T15:51:23.213Z,47.99
2018-12-21T15:53:50.748Z,47.97
2018-12-21T15:56:18.296Z,47.43
2018-12-21T15:58:45.795Z,47.52
2018-12-21T16:01:13.788Z,48.06
2018-12-21T16:03:41.446Z,48.04
2018-12-21T16:06:09.115Z,48.02
2018-12-21T16:08:37.187Z,47.90
2018-12-21T16:11:04.749Z,48.24
2018-12-21T16:13:32.350Z,47.52
2018-12-21T16:15:59.762Z,47.85
2018-12-21T16:18:27.347Z,47.96
2018-12-21T16:20:54.776Z,48.18
2018-12-21T16:23:22.347Z,47.78
2018-12-21T16:25:49.798Z,47.86
2018-12-21T16:28:17.224Z,48.04
2018-12-21T16:30:44.716Z,47.81
2018-12-21T16:33:12.321Z,47.89
2018-12-21T16:35:40.337Z,47.91
2018-12-21T16:38:07.885Z,48.42
2018-12-21T16:40:35.661Z,48.43
2018-12-21T16:43:03.621Z,48.13
2018-12-21T16:45:31.109Z,47.95
2018-12-21T16:47:59.014Z,48.63
2018-12-21T16:50:26.774Z,48.16
2018-12-21T16:52:54.419Z,48.73
2018-12-21T16:55:21.995Z,48.56
2018-12-21T16:57:49.434Z,48.18
2018-12-21T17:00:17.157Z,48.80
2018-12-21T17:02:44.603Z,48.76
2018-12-21T17:05:12.386Z,48.81
2018-12-21T17:07:39.876Z,48.42
2018-12-21T17:10:10.374Z,48.82
2018-12-21T17:12:38.013Z,48.44
2018-12-21T17:15:08.736Z,48.43
2018-12-21T17:17:36.615Z,48.95
2018-12-21T17:20:06.375Z,48.54
2018-12-21T17:22:33.940Z,49.02
2018-12-21T17:25:01.361Z,48.65
2018-12-21T17:27:29.164Z,49.00
2018-12-21T17:29:57.269Z,48.59
2018-12-21T17:32:24.949Z,49.17
2018-12-21T17:34:52.410Z,48.60
2018-12-21T17:37:19.977Z,49.25
2018-12-21T17:39:47.555Z,49.20
2018-12-21T17:42:15.302Z,49.12
2018-12-21T17:44:42.716Z,48.97
2018-12-21T17:47:10.322Z,48.79
2018-12-21T17:49:37.785Z,49.30
2018-12-21T17:52:05.213Z,48.44
2018-12-21T17:54:32.820Z,48.86
2018-12-21T17:57:00.451Z,48.87
2018-12-21T17:59:27.909Z,49.26
2018-12-21T18:01:55.347Z,49.40
2018-12-21T18:04:23.553Z,50.10
2018-12-21T18:06:51.222Z,50.32
2018-12-21T18:09:19.076Z,50.34
2018-12-21T18:11:47.030Z,50.62
2018-12-21T18:14:14.593Z,50.64
2018-12-21T18:16:42.182Z,50.39
2018-12-21T18:19:09.621Z,50.44
2018-12-21T18:21:44.437Z,50.35
2018-12-21T18:24:11.879Z,50.08
2018-12-21T18:26:39.449Z,50.29
2018-12-21T18:29:06.928Z,50.23
2018-12-21T18:31:39.005Z,50.32
2018-12-21T18:34:08.506Z,50.42
2018-12-21T18:36:36.123Z,50.26
2018-12-21T18:39:05.244Z,50.30
2018-12-21T18:41:33.010Z,50.26
2018-12-21T18:44:00.479Z,50.49
2018-12-21T18:46:28.017Z,50.85
2018-12-21T18:48:55.586Z,50.22
2018-12-21T18:51:22.995Z,50.37
2018-12-21T18:53:50.627Z,50.71
2018-12-21T18:56:20.402Z,50.89
2018-12-21T18:58:49.310Z,50.65
2018-12-21T19:01:17.289Z,50.33
2018-12-21T19:03:46.285Z,50.76
2018-12-21T19:06:13.914Z,50.58
2018-12-21T19:08:41.511Z,50.46
2018-12-21T19:11:09.174Z,50.34
2018-12-21T19:13:36.595Z,50.41
2018-12-21T19:16:04.582Z,51.00
2018-12-21T19:18:32.179Z,51.15
2018-12-21T19:20:59.784Z,51.14
2018-12-21T19:23:27.351Z,51.14
2018-12-21T19:25:55.263Z,50.95
2018-12-21T19:28:22.861Z,50.84
2018-12-21T19:30:50.722Z,51.24
2018-12-21T19:33:18.403Z,51.22
2018-12-21T19:35:45.926Z,50.80
2018-12-21T19:38:13.935Z,51.22
2018-12-21T19:40:42.394Z,50.87
2018-12-21T19:43:10.307Z,50.84
2018-12-21T19:45:38.732Z,51.31
2018-12-21T19:48:06.326Z,50.82
2018-12-21T19:50:34.473Z,51.47
2018-12-21T19:53:02.755Z,50.90
2018-12-21T19:55:37.938Z,50.99
2018-12-21T19:58:05.632Z,51.06
2018-12-21T20:00:34.748Z,51.03
2018-12-21T20:03:02.576Z,51.18
2018-12-21T20:05:31.068Z,51.44
2018-12-21T20:07:58.666Z,51.16
2018-12-21T20:10:26.704Z,51.61
2018-12-21T20:12:54.888Z,51.84
2018-12-21T20:15:24.873Z,51.29
2018-12-21T20:17:52.949Z,51.41
2018-12-21T20:20:20.444Z,51.90
2018-12-21T20:22:48.988Z,51.72
2018-12-21T20:25:16.809Z,51.96
2018-12-21T20:27:44.632Z,51.89
2018-12-21T20:30:13.761Z,52.05
2018-12-21T20:32:41.726Z,51.77
2018-12-21T20:35:10.198Z,53.33
2018-12-21T20:37:38.001Z,52.54
2018-12-21T20:40:09.612Z,52.87
2018-12-21T20:42:37.455Z,53.50
2018-12-21T20:45:08.212Z,53.27
2018-12-21T20:47:35.980Z,53.34
2018-12-21T20:50:06.914Z,53.09
2018-12-21T20:52:34.790Z,52.93
2018-12-21T20:55:04.158Z,53.08
2018-12-21T20:57:32.615Z,53.31
2018-12-21T21:00:01.399Z,53.26
2018-12-21T21:02:29.267Z,53.16
2018-12-21T21:04:56.927Z,53.27
2018-12-21T21:07:25.110Z,53.43
2018-12-21T21:09:53.171Z,53.33
2018-12-21T21:12:21.175Z,53.77
2018-12-21T21:14:49.022Z,53.25
2018-12-21T21:17:17.407Z,53.77
2018-12-21T21:19:45.669Z,53.99
2018-12-21T21:22:13.702Z,54.03
2018-12-21T21:24:41.549Z,53.49
2018-12-21T21:27:09.155Z,53.66
2018-12-21T21:29:37.290Z,53.32
2018-12-21T21:32:05.604Z,50.85
2018-12-21T21:34:33.617Z,48.61
2018-12-21T21:37:01.186Z,49.05
2018-12-21T21:39:29.214Z,48.05
2018-12-21T21:41:56.740Z,46.61
2018-12-21T21:44:24.752Z,45.70
2018-12-21T21:46:52.378Z,45.93
2018-12-21T21:49:20.383Z,45.56
2018-12-21T21:51:48.585Z,45.88
2018-12-21T21:54:16.076Z,45.86
2018-12-21T21:56:44.070Z,46.75
2018-12-21T21:59:11.775Z,47.77
2018-12-21T22:01:39.542Z,48.19
2018-12-21T22:04:07.143Z,48.41
2018-12-21T22:06:35.070Z,48.33
2018-12-21T22:09:02.795Z,49.19
2018-12-21T22:11:30.695Z,49.55
2018-12-21T22:13:58.911Z,51.32
2018-12-21T22:16:27.756Z,50.98
2018-12-21T22:18:55.800Z,51.73
2018-12-21T22:21:23.298Z,51.61
2018-12-21T22:23:51.386Z,52.21
2018-12-21T22:26:18.950Z,52.60
2018-12-21T22:28:46.922Z,53.07
2018-12-21T22:31:14.338Z,53.39
2018-12-21T22:33:41.932Z,53.00
2018-12-21T22:36:09.901Z,53.62
2018-12-21T22:38:37.321Z,53.40
2018-12-21T22:41:04.881Z,53.15
2018-12-21T22:43:32.865Z,53.14
2018-12-21T22:46:00.295Z,53.42
2018-12-21T22:48:27.775Z,53.15
2018-12-21T22:50:55.842Z,53.26
2018-12-21T22:53:23.268Z,53.62
2018-12-21T22:55:51.364Z,53.25
2018-12-21T22:58:18.851Z,53.30
2018-12-21T23:00:46.498Z,53.78
2018-12-21T23:03:14.428Z,53.63
2018-12-21T23:05:41.875Z,53.31
2018-12-21T23:08:09.879Z,53.30
2018-12-21T23:10:37.478Z,53.65
2018-12-21T23:13:05.686Z,53.64
2018-12-21T23:15:33.695Z,53.07
2018-12-21T23:18:01.857Z,53.83
2018-12-21T23:20:29.627Z,53.87
2018-12-21T23:22:57.495Z,53.46
2018-12-21T23:25:25.050Z,53.80
2018-12-21T23:27:53.147Z,53.54
2018-12-21T23:30:20.685Z,53.52
2018-12-21T23:32:48.415Z,53.48
2018-12-21T23:35:16.237Z,53.28
2018-12-21T23:37:43.913Z,53.42
2018-12-21T23:40:11.609Z,52.70
2018-12-21T23:42:39.262Z,52.54
2018-12-21T23:45:07.062Z,53.06
2018-12-21T23:47:34.643Z,52.56
2018-12-21T23:50:02.477Z,53.10
2018-12-21T23:52:30.241Z,52.65
2018-12-21T23:54:57.903Z,52.71
2018-12-21T23:57:25.772Z,53.10
2018-12-21T23:59:53.434Z,52.80
